This is the latest recevied weather packets stored in our database for station/object Riedlingn. If no packets are shown the sender has not sent any weather packets the latest 1 day(s).
| Time | Temp. | Humidity | Pressure | Rain* | Wind** | Luminosity | Snow |
|---|---|---|---|---|---|---|---|
| 1777991532 | 15.56° C | 74% | 1011.9 hPa | 0.51 mm | 1.34 m/s, 12° | - | - |
| 1777989730 | 15.56° C | 80% | 1012.1 hPa | 0.51 mm | 3.58 m/s, 343° | - | - |
| 1777987930 | 15.56° C | 82% | 1012.3 hPa | 0.51 mm | 1.79 m/s, 335° | - | - |
| 1777986130 | 15.56° C | 83% | 1012.3 hPa | 0.51 mm | 3.13 m/s, 312° | - | - |
| 1777984330 | 15.56° C | 77% | 1012.7 hPa | 0.25 mm | 1.79 m/s, 259° | - | - |
| 1777982530 | 16.67° C | 70% | 1012.9 hPa | 0 mm | 3.58 m/s, 182° | - | - |
| 1777980730 | 17.22° C | 65% | 1012.7 hPa | 0 mm | 3.58 m/s, 192° | - | - |
| 1777978931 | 16.67° C | 66% | 1012.4 hPa | 0 mm | 2.24 m/s, 229° | - | - |
| 1777977131 | 16.67° C | 67% | 1012.6 hPa | 0 mm | 2.68 m/s, 229° | - | - |
| 1777975332 | 16.67° C | 67% | 1012.7 hPa | 0 mm | 3.13 m/s, 275° | - | - |
| 1777973532 | 16.67° C | 69% | 1012.9 hPa | 0 mm | 1.34 m/s, 297° | - | - |
| 1777971732 | 16.11° C | 70% | 1013 hPa | 0 mm | 2.24 m/s, 269° | - | - |
| 1777969931 | 16.11° C | 72% | 1013.1 hPa | 0 mm | 0.89 m/s, 218° | - | - |
| 1777968131 | 15.56° C | 72% | 1013.3 hPa | 0 mm | 1.79 m/s, 288° | - | - |
| 1777966330 | 14.44° C | 78% | 1013.6 hPa | 0 mm | 1.34 m/s, 265° | - | - |
| 1777964532 | 12.22° C | 82% | 1013.8 hPa | 0 mm | 1.34 m/s, 167° | - | - |
| 1777962731 | 11.67° C | 84% | 1014.1 hPa | 0 mm | 1.79 m/s, 258° | - | - |
| 1777960932 | 10° C | 89% | 1014.2 hPa | 0 mm | 0.89 m/s, 192° | - | - |
| 1777959131 | 8.89° C | 91% | 1014.2 hPa | 0 mm | 0.89 m/s, 168° | - | - |
| 1777957331 | 7.78° C | 92% | 1014.2 hPa | 0 mm | 0 m/s | - | - |
| 1777955531 | 6.67° C | 92% | 1014.5 hPa | 0 mm | 0 m/s | - | - |
| 1777953731 | 7.22° C | 91% | 1014.5 hPa | 0 mm | 0 m/s | - | - |
| 1777951931 | 7.22° C | 90% | 1014.5 hPa | 0 mm | 0 m/s | - | - |
* Rain since midnight (hover to see other rain measurements)
** Current wind speed in m/s (hover to see current wind gust speed)